Time;durP1;ratioP1;P1;durP2;ratioP2;P2;SDS_P1;SDS_P2;PMS_P1;PMS_P2;Temp;Humidity;BMP_temperature;BMP_pressure;BME280_temperature;BME280_humidity;BME280_pressure;Samples;Min_cycle;Max_cycle;Signal;HPM_P1;HPM_P2
2023/04/10 00:01:06;;;;;;;19.88;10.80;;;;;;;8.76;46.48;100134.94;7364040;19;20084;-74
2023/04/10 00:03:31;;;;;;;16.58;10.20;;;;;;;8.80;46.21;100132.97;7358635;19;20006;-75
2023/04/10 00:05:56;;;;;;;17.75;12.57;;;;;;;8.74;46.13;100132.38;7347882;19;20086;-74
2023/04/10 00:08:22;;;;;;;19.92;11.20;;;;;;;8.76;46.41;100132.28;7346305;19;20023;-74
2023/04/10 00:10:46;;;;;;;18.58;10.35;;;;;;;8.74;46.32;100129.72;7344393;19;20043;-74
2023/04/10 00:13:11;;;;;;;18.40;9.98;;;;;;;8.79;46.42;100137.44;7347066;19;20015;-76
2023/04/10 00:15:36;;;;;;;16.95;10.45;;;;;;;8.72;46.28;100134.25;7348557;19;20078;-81
2023/04/10 00:18:01;;;;;;;22.98;11.75;;;;;;;8.74;46.29;100132.38;7347645;19;20011;-70
2023/04/10 00:20:26;;;;;;;23.58;11.07;;;;;;;8.69;46.66;100134.41;7346653;19;20030;-72
2023/04/10 00:22:51;;;;;;;22.60;11.02;;;;;;;8.70;46.71;100140.59;7346201;19;20023;-68
2023/04/10 00:25:17;;;;;;;17.70;11.38;;;;;;;8.70;46.94;100141.44;7343893;19;20021;-72
2023/04/10 00:27:43;;;;;;;17.98;10.57;;;;;;;8.76;46.78;100155.34;7345218;19;20018;-71
2023/04/10 00:30:08;;;;;;;18.80;10.52;;;;;;;8.84;47.23;100164.59;7344216;19;20014;-70
2023/04/10 00:32:33;;;;;;;19.83;11.23;;;;;;;8.89;47.43;100159.91;7348355;19;20446;-71
2023/04/10 00:34:57;;;;;;;16.73;10.30;;;;;;;8.86;47.39;100151.22;7348993;19;20015;-67
2023/04/10 00:37:22;;;;;;;21.02;12.05;;;;;;;8.92;48.09;100165.03;7345392;19;20015;-67
2023/04/10 00:39:47;;;;;;;20.75;11.05;;;;;;;8.90;48.15;100164.28;7347550;19;20018;-67
2023/04/10 00:42:11;;;;;;;17.70;10.32;;;;;;;8.91;48.88;100158.00;7349851;19;20478;-70
2023/04/10 00:44:36;;;;;;;21.88;11.23;;;;;;;8.89;48.55;100164.34;7350959;19;20017;-66
2023/04/10 00:47:04;;;;;;;24.70;12.80;;;;;;;8.85;48.82;100163.66;7348497;19;20022;-65
2023/04/10 00:49:34;;;;;;;20.05;12.20;;;;;;;8.76;49.34;100150.03;7347468;19;20470;-67
2023/04/10 00:51:58;;;;;;;27.67;12.73;;;;;;;8.79;48.76;100152.53;7349980;19;20477;-65
2023/04/10 00:54:23;;;;;;;23.30;11.55;;;;;;;8.83;48.70;100151.38;7351182;19;20450;-71
2023/04/10 00:56:50;;;;;;;20.60;11.75;;;;;;;8.80;48.68;100144.47;7347571;19;20078;-69
2023/04/10 00:59:15;;;;;;;17.98;11.20;;;;;;;8.79;48.73;100149.88;7349706;19;20014;-69
2023/04/10 01:01:40;;;;;;;23.83;13.15;;;;;;;8.81;48.84;100143.50;7351567;19;20022;-70
2023/04/10 01:04:04;;;;;;;15.65;10.70;;;;;;;8.82;48.31;100142.56;7360854;19;20859;-67
2023/04/10 01:07:17;;;;;;;16.20;10.63;;;;;;;8.94;47.80;100149.84;7355981;19;20025;-68
2023/04/10 01:09:47;;;;;;;21.42;11.20;;;;;;;8.82;48.45;100150.53;7350335;19;20024;-71
2023/04/10 01:12:24;;;;;;;20.75;11.05;;;;;;;8.83;48.30;100140.75;7344155;19;20489;-68
2023/04/10 01:14:57;;;;;;;16.52;10.80;;;;;;;8.78;48.58;100143.69;7341730;19;20465;-68
2023/04/10 01:17:32;;;;;;;20.13;11.07;;;;;;;8.80;48.46;100148.94;7343038;19;20014;-67
2023/04/10 01:20:00;;;;;;;;;;;;;;;8.90;48.07;100145.66;7341974;19;20017;-68
2023/04/10 01:22:35;;;;;;;15.68;9.77;;;;;;;8.84;48.29;100150.44;7339043;19;19919;-68
2023/04/10 01:25:40;;;;;;;21.17;11.98;;;;;;;8.90;48.06;100145.66;7341154;19;20525;-68
2023/04/10 01:28:26;;;;;;;22.75;11.95;;;;;;;8.89;48.28;100151.06;7338810;19;20011;-66
2023/04/10 01:30:57;;;;;;;20.90;11.05;;;;;;;8.84;48.58;100148.66;7338363;19;20025;-68
2023/04/10 01:33:28;;;;;;;15.85;11.20;;;;;;;8.86;49.41;100152.09;7338572;19;20030;-68
2023/04/10 01:35:57;;;;;;;18.48;10.93;;;;;;;8.86;49.21;100149.44;7337787;19;20007;-67
2023/04/10 01:38:23;;;;;;;20.63;11.75;;;;;;;8.91;49.29;100155.34;7338826;19;20070;-69
2023/04/10 01:40:52;;;;;;;21.40;10.88;;;;;;;8.94;49.37;100163.13;7339025;19;20018;-66
2023/04/10 01:43:26;;;;;;;18.63;11.40;;;;;;;8.94;49.29;100154.31;7341923;19;20026;-69
2023/04/10 01:45:51;;;;;;;23.30;11.75;;;;;;;8.94;48.67;100155.16;7335707;19;20124;-67
2023/04/10 01:48:17;;;;;;;25.17;11.07;;;;;;;8.96;48.84;100163.06;7336380;19;20509;-68
2023/04/10 01:50:45;;;;;;;24.02;11.40;;;;;;;8.92;48.61;100158.84;7333655;19;20013;-70
2023/04/10 01:53:10;;;;;;;22.20;11.05;;;;;;;8.94;48.71;100157.81;7336446;19;20136;-69
2023/04/10 01:55:37;;;;;;;18.05;11.25;;;;;;;8.99;49.17;100157.56;7336771;19;20019;-70
2023/04/10 01:58:05;;;;;;;21.00;12.00;;;;;;;8.98;48.94;100166.50;7337329;19;20027;-69
2023/04/10 02:00:30;;;;;;;17.35;10.38;;;;;;;8.97;48.90;100154.13;7338464;19;20018;-67
2023/04/10 02:02:57;;;;;;;20.17;11.32;;;;;;;8.95;49.18;100156.88;7337358;19;20018;-66
2023/04/10 02:05:32;;;;;;;24.42;10.93;;;;;;;8.97;49.41;100157.66;7343703;19;20007;-67
2023/04/10 02:08:07;;;;;;;18.65;10.65;;;;;;;8.99;49.30;100166.41;7340728;19;20014;-67
2023/04/10 02:10:40;;;;;;;18.35;11.98;;;;;;;8.92;49.54;100164.16;7332797;19;20018;-65
2023/04/10 02:13:06;;;;;;;21.23;13.57;;;;;;;8.87;49.64;100163.56;7336073;19;20061;-68
2023/04/10 02:15:33;;;;;;;22.42;12.55;;;;;;;8.84;49.25;100169.06;7335778;19;20133;-69
2023/04/10 02:17:59;;;;;;;23.20;12.45;;;;;;;8.86;49.49;100162.72;7340133;19;20018;-68
2023/04/10 02:20:24;;;;;;;24.55;13.15;;;;;;;8.88;49.75;100166.16;7343630;19;20028;-69
2023/04/10 02:22:49;;;;;;;19.73;12.27;;;;;;;8.90;49.50;100161.63;7338441;19;20010;-68
2023/04/10 02:25:15;;;;;;;19.95;12.63;;;;;;;8.90;49.28;100168.72;7350182;19;20007;-71
2023/04/10 02:27:40;;;;;;;23.25;13.05;;;;;;;8.85;49.35;100152.16;7351274;19;20044;-67
2023/04/10 02:30:05;;;;;;;22.20;12.18;;;;;;;8.87;49.84;100150.28;7351028;19;20003;-67
2023/04/10 02:32:33;;;;;;;20.42;13.07;;;;;;;8.89;50.04;100161.69;7347949;19;20010;-76
2023/04/10 02:34:58;;;;;;;23.65;12.43;;;;;;;8.90;50.25;100161.63;7347331;19;20035;-72
2023/04/10 02:37:23;;;;;;;22.35;12.13;;;;;;;8.90;50.34;100153.63;7344647;19;20015;-75
2023/04/10 02:39:48;;;;;;;17.10;11.77;;;;;;;8.96;50.32;100163.06;7335923;19;20030;-67
2023/04/10 02:42:15;;;;;;;21.58;12.55;;;;;;;8.97;50.67;100156.78;7336924;19;20022;-65
2023/04/10 02:44:40;;;;;;;21.27;13.43;;;;;;;8.93;51.65;100158.75;7341058;19;20106;-67
2023/04/10 02:47:06;;;;;;;20.98;13.63;;;;;;;8.92;52.67;100162.38;7337396;19;20022;-67
2023/04/10 02:49:36;;;;;;;24.58;14.93;;;;;;;8.76;53.76;100166.84;7345106;19;20007;-73
2023/04/10 02:52:08;;;;;;;32.30;16.65;;;;;;;8.57;55.67;100167.00;7347557;19;20025;-72
2023/04/10 02:54:33;;;;;;;27.02;16.65;;;;;;;8.31;57.67;100164.88;7346622;19;20018;-70
2023/04/10 02:57:00;;;;;;;25.63;15.00;;;;;;;8.24;58.79;100171.47;7347575;19;20014;-70
2023/04/10 02:59:25;;;;;;;24.15;13.70;;;;;;;8.27;58.60;100169.47;7345188;19;20014;-66
2023/04/10 03:01:51;;;;;;;24.80;15.40;;;;;;;8.33;58.90;100169.19;7349184;19;20027;-69
2023/04/10 03:04:15;;;;;;;23.10;13.68;;;;;;;8.40;58.73;100171.50;7349078;19;20017;-67
2023/04/10 03:06:40;;;;;;;20.92;15.32;;;;;;;8.41;59.29;100168.78;7347197;19;20010;-69
2023/04/10 03:09:05;;;;;;;25.08;14.35;;;;;;;8.44;59.09;100170.41;7347897;19;20015;-69
2023/04/10 03:11:31;;;;;;;26.38;14.90;;;;;;;8.46;59.55;100179.16;7347439;19;20014;-65
2023/04/10 03:13:58;;;;;;;23.30;15.40;;;;;;;8.45;59.20;100170.34;7345245;19;20096;-65
2023/04/10 03:16:23;;;;;;;24.92;15.00;;;;;;;8.50;58.56;100172.72;7348294;19;20053;-65
2023/04/10 03:18:48;;;;;;;24.88;14.88;;;;;;;8.53;58.87;100170.78;7345930;19;20010;-66
2023/04/10 03:21:12;;;;;;;25.10;15.20;;;;;;;8.55;59.18;100158.25;7345435;19;20010;-67
2023/04/10 03:23:37;;;;;;;23.15;16.23;;;;;;;8.58;58.99;100160.72;7344904;19;20037;-65
2023/04/10 03:26:03;;;;;;;26.25;14.25;;;;;;;8.61;58.81;100157.91;7344450;19;20022;-65
2023/04/10 03:28:35;;;;;;;21.38;14.70;;;;;;;8.65;58.97;100155.94;7344942;19;20021;-68
2023/04/10 03:31:01;;;;;;;33.40;15.63;;;;;;;8.69;59.10;100161.00;7343325;19;20492;-65
2023/04/10 03:33:29;;;;;;;23.92;14.15;;;;;;;8.71;58.88;100168.88;7344486;19;20014;-65
2023/04/10 03:35:53;;;;;;;41.28;16.23;;;;;;;8.74;58.92;100156.28;7346287;19;20094;-67
2023/04/10 03:38:18;;;;;;;28.20;15.25;;;;;;;8.74;58.81;100152.78;7347705;19;20018;-73
2023/04/10 03:40:43;;;;;;;26.35;15.10;;;;;;;8.76;58.72;100161.53;7345698;19;20434;-73
2023/04/10 03:43:08;;;;;;;26.55;15.32;;;;;;;8.79;58.64;100160.50;7346553;19;20021;-74
2023/04/10 03:45:34;;;;;;;27.77;14.35;;;;;;;8.75;58.79;100157.16;7344732;19;20469;-73
2023/04/10 03:47:59;;;;;;;22.80;14.82;;;;;;;8.73;58.92;100156.38;7346317;19;20015;-74
2023/04/10 03:50:23;;;;;;;24.55;15.57;;;;;;;8.72;59.39;100155.50;7343437;19;20122;-74
2023/04/10 03:52:54;;;;;;;26.20;15.70;;;;;;;8.73;60.07;100154.56;7346522;19;20030;-75
2023/04/10 03:55:21;;;;;;;26.08;15.77;;;;;;;8.72;59.55;100152.84;7345669;19;20035;-76
2023/04/10 03:57:47;;;;;;;27.50;14.73;;;;;;;8.78;59.79;100150.81;7345963;19;20566;-77
2023/04/10 04:00:15;;;;;;;24.75;14.20;;;;;;;8.86;60.11;100152.09;7346963;19;20020;-77
2023/04/10 04:02:46;;;;;;;20.52;13.00;;;;;;;8.87;58.91;100151.16;7348050;19;20557;-78
2023/04/10 04:05:18;;;;;;;27.48;14.93;;;;;;;8.96;58.91;100152.41;7349225;19;20021;-79
2023/04/10 04:07:58;;;;;;;24.60;14.00;;;;;;;9.06;58.76;100153.59;7349433;19;20034;-77
2023/04/10 04:10:44;;;;;;;24.05;14.50;;;;;;;9.09;58.73;100141.00;7346788;19;20023;-75
2023/04/10 04:13:32;;;;;;;23.00;15.02;;;;;;;9.23;58.80;100148.19;7346736;19;20027;-76
2023/04/10 04:16:04;;;;;;;27.33;15.48;;;;;;;9.35;58.57;100142.16;7348459;19;20014;-77
2023/04/10 04:18:43;;;;;;;20.52;14.15;;;;;;;9.42;57.04;100139.97;7346565;19;20015;-76
2023/04/10 04:21:27;;;;;;;19.15;12.68;;;;;;;9.48;57.00;100152.91;7351241;19;20018;-78
2023/04/10 04:24:06;;;;;;;23.60;14.55;;;;;;;9.48;57.78;100147.59;7352397;19;20011;-77
2023/04/10 04:26:49;;;;;;;20.30;14.00;;;;;;;9.57;57.61;100149.72;7348850;19;20086;-77
2023/04/10 04:29:37;;;;;;;26.15;13.20;;;;;;;9.61;57.09;100142.41;7343535;19;20011;-78
2023/04/10 04:32:13;;;;;;;18.40;11.80;;;;;;;9.69;56.14;100141.03;7344838;19;20482;-76
2023/04/10 04:34:53;;;;;;;22.58;14.82;;;;;;;9.76;56.39;100137.03;7344953;19;20014;-79
2023/04/10 04:37:25;;;;;;;23.40;14.50;;;;;;;9.86;56.48;100139.13;7343885;19;20453;-78
2023/04/10 04:40:15;;;;;;;22.45;13.85;;;;;;;10.02;56.49;100137.25;7343190;19;20421;-78
2023/04/10 04:43:03;;;;;;;20.83;14.02;;;;;;;10.20;56.20;100138.81;7344510;19;20017;-78
2023/04/10 04:45:51;;;;;;;30.55;14.85;;;;;;;10.39;56.49;100143.84;7342613;19;20010;-79
2023/04/10 04:48:45;;;;;;;37.10;15.05;;;;;;;10.56;56.48;100138.31;7358636;19;20015;-78
2023/04/10 04:51:26;;;;;;;30.38;14.85;;;;;;;10.69;56.19;100139.25;7347635;19;20010;-78
2023/04/10 04:54:13;;;;;;;31.50;16.05;;;;;;;10.78;56.35;100136.00;7364343;19;20014;-77
2023/04/10 04:56:38;;;;;;;31.83;14.95;;;;;;;10.83;56.15;100139.22;7352104;19;20017;-77
2023/04/10 04:59:19;;;;;;;30.70;15.55;;;;;;;10.94;56.36;100141.19;7356520;19;20094;-77
2023/04/10 05:02:01;;;;;;;28.13;16.55;;;;;;;11.02;55.91;100146.03;7347258;19;20410;-78
2023/04/10 05:04:47;;;;;;;;;;;;;;;11.33;55.88;100151.06;7351481;19;20015;-74
2023/04/10 05:07:47;;;;;;;26.88;17.45;;;;;;;11.31;56.14;100154.78;7347395;19;20324;-74
2023/04/10 05:10:30;;;;;;;40.70;17.65;;;;;;;11.39;55.84;100155.13;7341856;19;20428;-74
2023/04/10 05:13:17;;;;;;;32.35;16.02;;;;;;;11.50;55.37;100150.78;7343859;19;20029;-74
2023/04/10 05:15:52;;;;;;;41.00;18.17;;;;;;;11.71;54.92;100152.97;7340416;19;20011;-74
2023/04/10 05:18:20;;;;;;;34.13;16.73;;;;;;;11.90;54.21;100159.66;7341576;19;20025;-75
2023/04/10 05:21:03;;;;;;;31.17;16.88;;;;;;;12.09;54.01;100147.66;7343356;19;20419;-76
2023/04/10 05:23:47;;;;;;;31.92;16.10;;;;;;;12.66;52.52;100148.91;7341337;19;20042;-75
2023/04/10 05:26:16;;;;;;;24.85;15.52;;;;;;;12.89;51.76;100149.03;7346859;19;20010;-74
2023/04/10 05:28:51;;;;;;;39.38;16.25;;;;;;;12.99;51.02;100152.75;7341128;19;20035;-75
2023/04/10 05:31:51;;;;;;;25.40;15.15;;;;;;;12.99;50.64;100147.41;7343638;19;20015;-76
2023/04/10 05:34:31;;;;;;;31.80;16.05;;;;;;;12.90;51.08;100151.63;7341920;19;20017;-76
2023/04/10 05:37:11;;;;;;;35.83;17.38;;;;;;;12.72;51.57;100155.63;7346311;19;20027;-76
2023/04/10 05:39:41;;;;;;;32.38;16.88;;;;;;;12.68;51.88;100157.66;7347941;19;20382;-76
2023/04/10 05:42:16;;;;;;;39.97;17.35;;;;;;;12.69;51.78;100151.34;7346482;19;20394;-76
2023/04/10 05:44:46;;;;;;;35.22;16.35;;;;;;;12.84;51.68;100167.28;7347314;19;20044;-76
2023/04/10 05:47:34;;;;;;;46.08;18.05;;;;;;;12.89;50.95;100163.28;7341479;19;20034;-76
2023/04/10 05:50:17;;;;;;;36.58;18.00;;;;;;;12.92;50.86;100170.25;7341573;19;20527;-76
2023/04/10 05:52:56;;;;;;;33.55;17.50;;;;;;;12.84;51.17;100153.91;7345621;19;20014;-74
2023/04/10 05:55:39;;;;;;;39.70;17.15;;;;;;;12.99;51.24;100167.00;7346946;19;20078;-75
2023/04/10 05:58:22;;;;;;;43.30;18.75;;;;;;;13.01;51.34;100174.91;7346029;19;20006;-77
2023/04/10 06:01:06;;;;;;;30.50;17.08;;;;;;;12.97;51.04;100170.78;7345861;19;20018;-75
2023/04/10 06:03:41;;;;;;;29.23;16.85;;;;;;;12.88;50.98;100174.94;7348354;19;20022;-74
2023/04/10 06:06:06;;;;;;;23.60;15.65;;;;;;;12.83;51.19;100166.41;7349559;19;20007;-75
2023/04/10 06:08:33;;;;;;;32.63;15.30;;;;;;;12.78;51.04;100173.06;7345633;19;20015;-73
2023/04/10 06:10:58;;;;;;;22.63;14.63;;;;;;;12.63;50.68;100164.34;7346939;19;20017;-74
2023/04/10 06:13:24;;;;;;;28.13;15.15;;;;;;;12.66;51.20;100167.63;7344501;19;20077;-76
2023/04/10 06:15:56;;;;;;;27.33;14.38;;;;;;;12.97;50.53;100170.78;7343847;19;20022;-73
2023/04/10 06:18:22;;;;;;;27.75;16.48;;;;;;;13.35;49.60;100171.50;7345453;19;20022;-77
2023/04/10 06:20:46;;;;;;;26.88;15.00;;;;;;;13.78;48.52;100160.22;7349732;19;20470;-75
2023/04/10 06:23:12;;;;;;;28.35;14.55;;;;;;;14.29;47.04;100163.38;7345116;19;20008;-74
2023/04/10 06:25:37;;;;;;;24.00;13.98;;;;;;;14.76;45.93;100164.16;7346035;19;20014;-75
2023/04/10 06:28:02;;;;;;;28.27;14.23;;;;;;;14.90;44.63;100162.03;7343932;19;20024;-74
2023/04/10 06:30:27;;;;;;;22.38;12.93;;;;;;;14.94;45.02;100162.66;7346226;19;20014;-75
2023/04/10 06:32:52;;;;;;;21.48;13.00;;;;;;;14.84;44.89;100170.59;7348673;19;20018;-76
2023/04/10 06:35:18;;;;;;;24.42;13.13;;;;;;;14.66;44.66;100168.56;7342053;19;20086;-74
2023/04/10 06:37:43;;;;;;;21.73;11.75;;;;;;;14.47;44.40;100166.44;7349416;19;20044;-74
2023/04/10 06:40:13;;;;;;;13.82;7.72;;;;;;;14.15;43.10;100177.00;7350233;19;20015;-75
2023/04/10 06:42:37;;;;;;;15.25;7.60;;;;;;;13.75;43.61;100176.53;7346714;19;20011;-74
2023/04/10 06:45:11;;;;;;;6.93;5.75;;;;;;;13.53;43.88;100177.31;7347628;19;20021;-76
2023/04/10 06:47:35;;;;;;;8.07;6.15;;;;;;;13.50;43.89;100176.69;7346844;19;20018;-76
2023/04/10 06:50:00;;;;;;;6.30;5.43;;;;;;;13.60;43.59;100175.88;7345596;19;20051;-77
2023/04/10 06:52:25;;;;;;;12.18;6.45;;;;;;;13.78;43.29;100182.50;7342899;19;20133;-77
2023/04/10 06:54:50;;;;;;;7.22;5.72;;;;;;;13.95;42.63;100173.19;7343296;19;20055;-76
2023/04/10 06:57:15;;;;;;;8.38;6.20;;;;;;;14.20;42.50;100179.34;7342313;19;20010;-78
2023/04/10 06:59:41;;;;;;;8.38;6.25;;;;;;;14.42;42.19;100182.09;7344527;19;20476;-76
2023/04/10 07:02:06;;;;;;;9.30;6.10;;;;;;;14.64;40.94;100170.50;7342143;19;20018;-76
2023/04/10 07:04:31;;;;;;;10.30;6.43;;;;;;;14.90;40.65;100174.59;7340666;19;20350;-77
2023/04/10 07:06:56;;;;;;;9.20;5.95;;;;;;;15.06;40.43;100176.91;7341969;19;20326;-76
2023/04/10 07:09:21;;;;;;;13.07;6.82;;;;;;;15.24;40.18;100173.56;7343517;19;20044;-77
2023/04/10 07:11:46;;;;;;;10.70;6.22;;;;;;;15.42;39.78;100179.25;7342390;19;20010;-77
2023/04/10 07:14:10;;;;;;;8.20;6.20;;;;;;;15.64;39.34;100174.81;7342118;19;20034;-77
2023/04/10 07:16:36;;;;;;;8.95;6.32;;;;;;;15.95;38.58;100173.91;7346120;19;20010;-78
2023/04/10 07:19:00;;;;;;;8.38;6.53;;;;;;;16.11;37.94;100176.16;7345814;19;20019;-75
2023/04/10 07:21:26;;;;;;;11.00;6.70;;;;;;;16.04;37.58;100183.03;7347025;19;20033;-74
2023/04/10 07:23:52;;;;;;;16.33;7.55;;;;;;;15.87;38.07;100181.78;7343861;19;20018;-74
2023/04/10 07:26:16;;;;;;;22.88;9.73;;;;;;;15.43;39.24;100174.75;7358930;19;20238;-75
2023/04/10 07:28:41;;;;;;;10.20;7.57;;;;;;;15.27;39.00;100184.06;7372382;19;20014;-75
2023/04/10 07:31:07;;;;;;;12.15;8.82;;;;;;;15.06;39.08;100187.66;7360842;19;20022;-75
2023/04/10 07:33:32;;;;;;;16.10;9.18;;;;;;;14.76;39.85;100177.56;7345248;19;20038;-75
2023/04/10 07:35:58;;;;;;;16.33;11.27;;;;;;;14.62;39.91;100175.13;7353944;19;20478;-77
2023/04/10 07:38:23;;;;;;;19.52;11.32;;;;;;;14.57;40.73;100174.63;7359726;19;20472;-75
2023/04/10 07:40:48;;;;;;;19.33;12.32;;;;;;;14.75;41.09;100175.84;7357599;19;20011;-76
2023/04/10 07:43:12;;;;;;;18.27;11.10;;;;;;;15.13;40.33;100175.41;7365413;19;20018;-75
2023/04/10 07:45:37;;;;;;;26.42;12.60;;;;;;;15.38;39.25;100177.78;7370289;19;20007;-74
2023/04/10 07:48:02;;;;;;;19.40;12.32;;;;;;;15.74;39.18;100167.66;7373338;19;20022;-76
2023/04/10 07:50:26;;;;;;;19.67;12.25;;;;;;;16.64;38.51;100174.19;7371575;19;20010;-75
2023/04/10 07:52:52;;;;;;;23.13;12.50;;;;;;;18.19;36.60;100165.28;7371581;19;20003;-75
2023/04/10 07:55:17;;;;;;;17.02;10.90;;;;;;;20.16;32.77;100166.41;7372051;19;20007;-75
2023/04/10 07:57:41;;;;;;;16.40;10.68;;;;;;;21.11;31.08;100157.28;7376357;19;20043;-76
2023/04/10 08:00:06;;;;;;;16.60;10.00;;;;;;;21.29;30.19;100160.75;7373889;19;20479;-75
2023/04/10 08:02:39;;;;;;;14.13;10.20;;;;;;;20.62;30.19;100164.38;7369247;19;20018;-76
2023/04/10 08:05:04;;;;;;;16.98;10.13;;;;;;;19.68;31.42;100166.84;7366337;19;20047;-75
2023/04/10 08:07:29;;;;;;;14.95;10.90;;;;;;;19.14;31.86;100152.44;7364791;19;20006;-75
2023/04/10 08:09:53;;;;;;;21.25;11.27;;;;;;;18.86;32.63;100169.63;7365243;19;20021;-76
2023/04/10 08:12:18;;;;;;;21.25;13.07;;;;;;;18.54;33.54;100158.38;7365977;19;20011;-75
2023/04/10 08:14:44;;;;;;;17.67;10.57;;;;;;;18.48;33.59;100157.13;7346864;19;20057;-78
2023/04/10 08:17:13;;;;;;;14.48;11.13;;;;;;;18.44;33.45;100147.63;7350597;19;20026;-77
2023/04/10 08:19:37;;;;;;;19.90;11.02;;;;;;;18.33;33.97;100159.44;7351481;19;20019;-77
2023/04/10 08:22:02;;;;;;;16.55;10.80;;;;;;;18.17;33.95;100161.06;7357423;19;20018;-80
2023/04/10 08:24:27;;;;;;;17.25;12.00;;;;;;;17.90;34.35;100168.06;7359580;19;20007;-76
2023/04/10 08:26:51;;;;;;;16.48;11.13;;;;;;;17.36;35.05;100153.28;7348996;19;20014;-76
2023/04/10 08:29:16;;;;;;;18.38;10.98;;;;;;;17.17;35.37;100165.84;7346706;19;20743;-76
2023/04/10 08:31:41;;;;;;;18.80;10.98;;;;;;;17.17;35.37;100158.63;7348077;19;20011;-77
2023/04/10 08:34:05;;;;;;;16.20;12.15;;;;;;;17.11;35.09;100151.09;7346733;19;20042;-78
2023/04/10 08:36:31;;;;;;;16.98;10.43;;;;;;;16.69;35.36;100169.28;7346074;19;20457;-77
2023/04/10 08:38:56;;;;;;;13.70;10.32;;;;;;;16.53;35.61;100158.97;7351985;19;20010;-76
2023/04/10 08:41:20;;;;;;;23.88;11.43;;;;;;;16.62;35.78;100168.09;7347402;19;20022;-75
2023/04/10 08:43:46;;;;;;;17.88;11.20;;;;;;;16.07;36.85;100159.41;7346546;19;20010;-78
2023/04/10 08:46:13;;;;;;;25.33;12.25;;;;;;;16.57;36.47;100159.56;7343573;19;20081;-78
2023/04/10 08:48:44;;;;;;;16.88;11.45;;;;;;;16.90;35.72;100161.97;7344303;19;20014;-77
2023/04/10 08:51:14;;;;;;;17.20;10.68;;;;;;;17.23;35.11;100157.22;7344940;19;20030;-78
2023/04/10 08:53:43;;;;;;;15.05;10.07;;;;;;;17.40;35.09;100162.75;7346139;19;20014;-78
2023/04/10 08:56:18;;;;;;;23.65;11.77;;;;;;;17.42;35.09;100162.63;7344002;19;20525;-77
2023/04/10 08:58:44;;;;;;;18.85;11.88;;;;;;;17.49;34.98;100161.09;7344204;19;20035;-76
2023/04/10 09:01:12;;;;;;;16.33;10.68;;;;;;;17.65;34.48;100164.09;7345920;19;20022;-78
2023/04/10 09:03:37;;;;;;;18.02;9.82;;;;;;;17.68;34.92;100154.88;7345296;19;20014;-77
2023/04/10 09:06:03;;;;;;;15.90;10.00;;;;;;;17.39;34.70;100165.59;7346803;19;20565;-78
2023/04/10 09:08:28;;;;;;;19.85;10.88;;;;;;;17.12;34.90;100157.34;7345593;19;20291;-78
2023/04/10 09:10:53;;;;;;;24.02;10.13;;;;;;;16.80;35.68;100157.53;7344385;19;20046;-76
2023/04/10 09:13:35;;;;;;;16.15;10.00;;;;;;;17.16;35.64;100164.13;7350094;19;20334;-78
2023/04/10 09:16:00;;;;;;;19.40;10.65;;;;;;;17.40;35.21;100154.69;7348501;19;20022;-79
2023/04/10 09:18:41;;;;;;;18.52;10.48;;;;;;;18.03;34.66;100159.66;7349360;19;20002;-79
2023/04/10 09:21:07;;;;;;;17.33;10.70;;;;;;;17.45;34.46;100159.66;7354829;19;20346;-78
2023/04/10 09:23:31;;;;;;;20.17;9.65;;;;;;;17.49;34.54;100160.25;7358668;19;20337;-79
2023/04/10 09:25:56;;;;;;;16.20;9.35;;;;;;;17.55;34.47;100149.72;7363743;19;20506;-75
2023/04/10 09:28:21;;;;;;;15.05;8.95;;;;;;;17.84;34.34;100149.72;7360724;19;20015;-77
2023/04/10 09:30:46;;;;;;;17.00;10.30;;;;;;;18.16;33.85;100146.72;7354274;19;20022;-79
2023/04/10 09:33:26;;;;;;;14.68;10.48;;;;;;;18.63;32.87;100154.81;7350948;19;20007;-77
2023/04/10 09:35:51;;;;;;;20.45;9.98;;;;;;;18.79;32.74;100136.13;7347918;19;20370;-82
2023/04/10 09:38:17;;;;;;;26.67;10.02;;;;;;;18.79;32.44;100141.53;7351709;19;20011;-79
2023/04/10 09:40:42;;;;;;;15.18;10.45;;;;;;;18.25;33.06;100143.13;7352037;19;20014;-77
2023/04/10 09:43:17;;;;;;;14.85;9.25;;;;;;;18.03;33.87;100152.44;7355195;19;20846;-75
2023/04/10 09:45:53;;;;;;;18.42;9.77;;;;;;;17.08;35.09;100145.13;7359367;19;20007;-77
2023/04/10 09:48:18;;;;;;;19.45;10.45;;;;;;;17.06;35.43;100132.66;7362255;19;20042;-76
2023/04/10 09:50:43;;;;;;;16.77;11.38;;;;;;;17.20;35.14;100135.94;7358409;19;20052;-76
2023/04/10 09:53:11;;;;;;;15.38;11.68;;;;;;;17.30;35.12;100145.72;7359224;19;20070;-79
2023/04/10 09:55:37;;;;;;;19.23;12.40;;;;;;;17.45;35.15;100140.78;7361775;19;20007;-78
2023/04/10 09:58:04;;;;;;;16.70;11.77;;;;;;;17.39;35.41;100138.63;7353658;19;20505;-76
2023/04/10 10:00:28;;;;;;;18.52;11.70;;;;;;;17.18;35.18;100143.31;7352042;19;20014;-75
2023/04/10 10:02:56;;;;;;;16.45;10.38;;;;;;;16.93;35.38;100142.81;7350109;19;20028;-80
2023/04/10 10:05:22;;;;;;;15.43;10.15;;;;;;;16.55;35.93;100131.91;7354977;19;20449;-76
2023/04/10 10:07:46;;;;;;;11.13;9.23;;;;;;;17.35;35.14;100139.94;7347661;19;20021;-75
2023/04/10 10:10:13;;;;;;;16.73;10.23;;;;;;;19.26;32.65;100130.59;7351224;19;20014;-76
2023/04/10 10:12:47;;;;;;;15.07;10.43;;;;;;;21.38;30.01;100134.50;7351549;19;20017;-75
2023/04/10 10:15:31;;;;;;;15.35;10.63;;;;;;;21.83;28.79;100131.31;7348937;19;20078;-76
2023/04/10 10:18:12;;;;;;;13.43;9.50;;;;;;;20.91;29.99;100132.31;7359661;19;20050;-78
2023/04/10 10:20:42;;;;;;;17.00;9.52;;;;;;;19.97;30.88;100127.88;7355408;19;20014;-77
2023/04/10 10:23:07;;;;;;;17.13;10.77;;;;;;;19.38;31.58;100132.91;7357279;19;20003;-76
2023/04/10 10:25:34;;;;;;;14.95;10.13;;;;;;;18.79;32.33;100131.56;7344140;19;20028;-77
2023/04/10 10:28:02;;;;;;;16.73;11.30;;;;;;;18.41;32.92;100129.84;7345871;19;20478;-79
2023/04/10 10:30:28;;;;;;;18.65;11.63;;;;;;;17.77;33.86;100127.88;7349575;19;20022;-78
2023/04/10 10:32:53;;;;;;;18.33;13.10;;;;;;;17.37;34.91;100119.94;7351221;19;20086;-77
2023/04/10 10:35:18;;;;;;;15.88;11.05;;;;;;;17.16;35.02;100115.63;7348642;19;20026;-78
2023/04/10 10:37:45;;;;;;;24.27;13.00;;;;;;;17.26;35.11;100120.06;7355977;19;20019;-76
2023/04/10 10:40:28;;;;;;;19.08;12.18;;;;;;;17.28;35.25;100120.75;7361125;19;20018;-77
2023/04/10 10:43:02;;;;;;;14.75;11.75;;;;;;;16.57;36.71;100121.88;7346524;19;20010;-78
2023/04/10 10:45:31;;;;;;;;;;;;;;;17.08;35.67;100118.19;7348522;19;20014;-78
2023/04/10 10:47:56;;;;;;;20.33;12.13;;;;;;;16.66;36.12;100118.38;7344753;19;19931;-77
2023/04/10 10:50:22;;;;;;;19.30;11.25;;;;;;;16.35;36.40;100109.47;7343513;19;20012;-77
2023/04/10 10:52:57;;;;;;;15.98;11.25;;;;;;;16.38;36.59;100108.31;7342029;19;20022;-75
2023/04/10 10:55:27;;;;;;;13.52;9.40;;;;;;;16.46;36.50;100112.06;7360453;19;20046;-76
2023/04/10 10:58:06;;;;;;;17.08;11.50;;;;;;;16.58;36.27;100113.66;7359874;19;20015;-77
2023/04/10 11:01:10;;;;;;;18.98;11.25;;;;;;;16.53;36.43;100112.34;7358680;19;20035;-75
2023/04/10 11:03:34;;;;;;;19.25;10.32;;;;;;;16.33;36.53;100111.44;7339434;19;20035;-77
2023/04/10 11:06:06;;;;;;;17.15;11.10;;;;;;;16.43;36.20;100114.16;7339581;19;20015;-76
2023/04/10 11:08:38;;;;;;;15.95;10.75;;;;;;;16.44;36.08;100108.63;7343577;19;20014;-77
2023/04/10 11:11:11;;;;;;;22.75;11.38;;;;;;;16.47;36.17;100108.38;7345088;19;20011;-75
2023/04/10 11:13:38;;;;;;;16.13;11.13;;;;;;;16.59;35.71;100109.13;7346892;19;20351;-75
2023/04/10 11:16:05;;;;;;;17.38;11.25;;;;;;;16.68;36.09;100105.63;7346666;19;20018;-74
2023/04/10 11:18:49;;;;;;;19.30;11.32;;;;;;;17.04;35.57;100105.00;7345420;19;20343;-78
2023/04/10 11:21:18;;;;;;;15.13;11.03;;;;;;;17.11;35.16;100104.44;7351104;19;20034;-79
2023/04/10 11:23:49;;;;;;;19.38;11.02;;;;;;;17.15;35.34;100095.09;7357065;19;20006;-80
2023/04/10 11:26:38;;;;;;;18.15;12.63;;;;;;;16.95;35.45;100111.22;7354552;19;20015;-78